Seven Points, Texas
Current Conditions -  °F | °C
As of 1:53 PM on Monday 26 Jan 2015 (Local Time) from KCRS Reporting Station
Clear Clear  
Wind Chill: 65°   Ceiling: Unl
Heat Index: 65°   Visibility: 10mi
Dew Point: 35°   Wind: 12mph
Humidity: 33%   Direction: 230°SW
Pressure: 30.15"   Gusts: NA
Location:  32.3343°N, 96.2786°W
Report Text: KCRS 261953Z AUTO 23010KT 10SM CLR 18/02 A3015 RMK AO2 SLP209 T01830017
Loading
Personal Weather Stations






























Interactive Weather Map New forecast layout! Learn more

10-Day Weather Forecast

Advertisements
Track Severe Weather on mobile